Terminal Aerodrome Forecast
Issued by NWS

Current Version | Previous Version | Graphics & Text | Print | Product List | Glossary On
Versions: 1 2 3 4 5 6 7 8 9 10 11 12 13 14 15 16 17 18
000
FTUS41 KRNK 251140
TAFLWB
TAF
KLWB 251140Z 2512/2612 05010KT 6SM -DZ SCT008 OVC012 WS020/08040KT
     FM251800 06007KT P6SM OVC018
     FM252300 02003KT 6SM BR OVC025
     FM260300 VRB03KT 3SM BR SCT025 BKN060
     FM260800 00000KT 1/4SM FG VV002=

USA.gov is the U.S. government's official web portal to all federal, state and local government web resources and services.